sensor_id;sensor_type;location;lat;lon;timestamp;pressure;altitude;pressure_sealevel;temperature;humidity
14790;BME280;7486;51.010;10.366;2024-01-30T00:01:20;99626.22;;;-0.42;72.77
14790;BME280;7486;51.010;10.366;2024-01-30T00:04:05;99628.69;;;-0.40;72.25
14790;BME280;7486;51.010;10.366;2024-01-30T00:06:51;99622.22;;;-0.47;71.96
14790;BME280;7486;51.010;10.366;2024-01-30T00:09:37;99603.38;;;-0.63;71.95
14790;BME280;7486;51.010;10.366;2024-01-30T00:12:23;99600.22;;;-0.68;72.12
14790;BME280;7486;51.010;10.366;2024-01-30T00:15:08;99630.38;;;-0.52;72.41
14790;BME280;7486;51.010;10.366;2024-01-30T00:17:53;99643.91;;;-0.47;72.66
14790;BME280;7486;51.010;10.366;2024-01-30T00:20:40;99608.06;;;-0.56;72.88
14790;BME280;7486;51.010;10.366;2024-01-30T00:23:25;99618.50;;;-0.56;72.86
14790;BME280;7486;51.010;10.366;2024-01-30T00:26:11;99601.50;;;-0.61;72.56
14790;BME280;7486;51.010;10.366;2024-01-30T00:28:56;99633.81;;;-0.38;72.55
14790;BME280;7486;51.010;10.366;2024-01-30T00:31:42;99640.66;;;-0.38;72.50
14790;BME280;7486;51.010;10.366;2024-01-30T00:34:27;99624.53;;;-0.43;72.09
14790;BME280;7486;51.010;10.366;2024-01-30T00:37:13;99631.22;;;-0.38;72.01
14790;BME280;7486;51.010;10.366;2024-01-30T00:39:58;99626.09;;;-0.40;71.34
14790;BME280;7486;51.010;10.366;2024-01-30T00:42:44;99626.22;;;-0.42;71.78
14790;BME280;7486;51.010;10.366;2024-01-30T00:45:29;99617.16;;;-0.49;71.50
14790;BME280;7486;51.010;10.366;2024-01-30T00:48:15;99624.00;;;-0.48;71.98
14790;BME280;7486;51.010;10.366;2024-01-30T00:51:00;99624.81;;;-0.60;72.35
14790;BME280;7486;51.010;10.366;2024-01-30T00:53:46;99613.69;;;-0.62;73.19
14790;BME280;7486;51.010;10.366;2024-01-30T00:56:32;99611.53;;;-0.55;73.29
14790;BME280;7486;51.010;10.366;2024-01-30T00:59:18;99615.56;;;-0.51;72.66
14790;BME280;7486;51.010;10.366;2024-01-30T01:02:03;99619.84;;;-0.50;72.55
14790;BME280;7486;51.010;10.366;2024-01-30T01:04:49;99617.16;;;-0.49;72.70
14790;BME280;7486;51.010;10.366;2024-01-30T01:07:35;99609.13;;;-0.46;72.37
14790;BME280;7486;51.010;10.366;2024-01-30T01:10:21;99618.59;;;-0.45;72.19
14790;BME280;7486;51.010;10.366;2024-01-30T01:13:06;99611.63;;;-0.44;72.40
14790;BME280;7486;51.010;10.366;2024-01-30T01:15:51;99610.91;;;-0.46;71.87
14790;BME280;7486;51.010;10.366;2024-01-30T01:18:37;99610.91;;;-0.46;72.24
14790;BME280;7486;51.010;10.366;2024-01-30T01:21:22;99611.94;;;-0.49;72.01
14790;BME280;7486;51.010;10.366;2024-01-30T01:24:08;99600.91;;;-0.52;71.77
14790;BME280;7486;51.010;10.366;2024-01-30T01:26:53;99600.91;;;-0.52;71.61
14790;BME280;7486;51.010;10.366;2024-01-30T01:29:38;99598.50;;;-0.55;72.97
14790;BME280;7486;51.010;10.366;2024-01-30T01:32:24;99575.78;;;-0.66;72.32
14790;BME280;7486;51.010;10.366;2024-01-30T01:35:09;99601.41;;;-0.47;72.46
14790;BME280;7486;51.010;10.366;2024-01-30T01:37:55;99605.16;;;-0.51;71.74
14790;BME280;7486;51.010;10.366;2024-01-30T01:40:40;99591.19;;;-0.63;71.67
14790;BME280;7486;51.010;10.366;2024-01-30T01:43:26;99592.66;;;-0.59;72.39
14790;BME280;7486;51.010;10.366;2024-01-30T01:46:11;99608.06;;;-0.56;72.81
14790;BME280;7486;51.010;10.366;2024-01-30T01:48:57;99606.59;;;-0.60;72.53
14790;BME280;7486;51.010;10.366;2024-01-30T01:51:44;99535.78;;;-0.90;72.71
14790;BME280;7486;51.010;10.366;2024-01-30T01:54:31;99583.69;;;-0.67;72.48
14790;BME280;7486;51.010;10.366;2024-01-30T01:57:17;99591.00;;;-0.60;72.39
14790;BME280;7486;51.010;10.366;2024-01-30T02:00:03;99595.66;;;-0.65;71.93
14790;BME280;7486;51.010;10.366;2024-01-30T02:02:54;99597.53;;;-0.67;71.75
14790;BME280;7486;51.010;10.366;2024-01-30T02:08:28;99520.56;;;-1.09;72.89
14790;BME280;7486;51.010;10.366;2024-01-30T02:11:14;99611.41;;;-0.54;73.25
14790;BME280;7486;51.010;10.366;2024-01-30T02:14:04;99603.38;;;-0.51;73.06
14790;BME280;7486;51.010;10.366;2024-01-30T02:16:50;99600.69;;;-0.49;73.38
14790;BME280;7486;51.010;10.366;2024-01-30T02:19:35;99466.56;;;-1.30;72.70
14790;BME280;7486;51.010;10.366;2024-01-30T02:22:22;99491.44;;;-1.14;73.73
14790;BME280;7486;51.010;10.366;2024-01-30T02:25:09;99587.34;;;-0.45;74.04
14790;BME280;7486;51.010;10.366;2024-01-30T02:27:54;99527.91;;;-0.76;73.46
14790;BME280;7486;51.010;10.366;2024-01-30T02:30:42;99563.09;;;-0.58;73.54
14790;BME280;7486;51.010;10.366;2024-01-30T02:33:28;99511.03;;;-0.83;73.16
14790;BME280;7486;51.010;10.366;2024-01-30T02:36:14;99491.44;;;-1.01;72.60
14790;BME280;7486;51.010;10.366;2024-01-30T02:39:02;99377.59;;;-1.61;72.53
14790;BME280;7486;51.010;10.366;2024-01-30T02:41:49;99524.56;;;-0.78;71.92
14790;BME280;7486;51.010;10.366;2024-01-30T02:44:35;99469.50;;;-1.10;71.89
14790;BME280;7486;51.010;10.366;2024-01-30T02:47:20;99530.50;;;-0.76;72.67
14790;BME280;7486;51.010;10.366;2024-01-30T02:50:06;99419.88;;;-1.32;72.36
14790;BME280;7486;51.010;10.366;2024-01-30T02:52:54;99347.97;;;-1.71;72.66
14790;BME280;7486;51.010;10.366;2024-01-30T02:55:39;99497.19;;;-0.83;72.05
14790;BME280;7486;51.010;10.366;2024-01-30T02:58:25;99526.03;;;-0.86;72.59
14790;BME280;7486;51.010;10.366;2024-01-30T03:01:11;99462.00;;;-1.54;73.42
14790;BME280;7486;51.010;10.366;2024-01-30T03:03:57;99461.63;;;-1.48;74.51
14790;BME280;7486;51.010;10.366;2024-01-30T03:06:46;99432.09;;;-1.47;74.23
14790;BME280;7486;51.010;10.366;2024-01-30T03:09:32;99458.56;;;-1.27;74.16
14790;BME280;7486;51.010;10.366;2024-01-30T03:12:19;99543.09;;;-0.82;73.30
14790;BME280;7486;51.010;10.366;2024-01-30T03:15:05;99549.78;;;-0.66;73.62
14790;BME280;7486;51.010;10.366;2024-01-30T03:17:52;99550.41;;;-0.62;73.06
14790;BME280;7486;51.010;10.366;2024-01-30T03:20:38;99549.56;;;-0.63;72.90
14790;BME280;7486;51.010;10.366;2024-01-30T03:23:24;99442.84;;;-1.26;72.65
14790;BME280;7486;51.010;10.366;2024-01-30T03:26:09;99423.78;;;-1.52;72.53
14790;BME280;7486;51.010;10.366;2024-01-30T03:28:56;99540.09;;;-0.64;72.69
14790;BME280;7486;51.010;10.366;2024-01-30T03:31:42;99540.91;;;-0.63;72.91
14790;BME280;7486;51.010;10.366;2024-01-30T03:34:28;99452.53;;;-1.15;73.05
14790;BME280;7486;51.010;10.366;2024-01-30T03:37:13;99445.66;;;-1.16;73.10
14790;BME280;7486;51.010;10.366;2024-01-30T03:39:59;99402.38;;;-1.55;73.52
14790;BME280;7486;51.010;10.366;2024-01-30T03:42:44;99502.19;;;-0.93;73.35
14790;BME280;7486;51.010;10.366;2024-01-30T03:45:30;99532.06;;;-0.86;74.53
14790;BME280;7486;51.010;10.366;2024-01-30T03:48:15;99350.63;;;-1.85;74.61
14790;BME280;7486;51.010;10.366;2024-01-30T03:51:01;99360.03;;;-1.70;74.07
14790;BME280;7486;51.010;10.366;2024-01-30T03:53:48;99265.91;;;-2.25;73.27
14790;BME280;7486;51.010;10.366;2024-01-30T03:56:33;99488.16;;;-0.91;73.40
14790;BME280;7486;51.010;10.366;2024-01-30T03:59:19;99446.50;;;-1.16;73.00
14790;BME280;7486;51.010;10.366;2024-01-30T04:02:05;99419.78;;;-1.30;72.77
14790;BME280;7486;51.010;10.366;2024-01-30T04:04:51;99537.81;;;-0.56;73.19
14790;BME280;7486;51.010;10.366;2024-01-30T04:07:37;99448.59;;;-1.08;73.15
14790;BME280;7486;51.010;10.366;2024-01-30T04:10:24;99452.53;;;-1.15;73.14
14790;BME280;7486;51.010;10.366;2024-01-30T04:13:10;99485.84;;;-0.95;74.07
14790;BME280;7486;51.010;10.366;2024-01-30T04:16:00;99471.19;;;-0.96;73.72
14790;BME280;7486;51.010;10.366;2024-01-30T04:18:49;99469.00;;;-0.89;73.88
14790;BME280;7486;51.010;10.366;2024-01-30T04:21:35;99531.47;;;-0.52;72.98
14790;BME280;7486;51.010;10.366;2024-01-30T04:24:21;99424.22;;;-1.20;72.64
14790;BME280;7486;51.010;10.366;2024-01-30T04:27:06;99402.09;;;-1.38;72.11
14790;BME280;7486;51.010;10.366;2024-01-30T04:29:52;99442.34;;;-1.18;72.09
14790;BME280;7486;51.010;10.366;2024-01-30T04:32:37;99450.75;;;-1.15;72.29
14790;BME280;7486;51.010;10.366;2024-01-30T04:35:23;99375.31;;;-1.65;72.03
14790;BME280;7486;51.010;10.366;2024-01-30T04:38:10;99424.22;;;-1.32;71.62
14790;BME280;7486;51.010;10.366;2024-01-30T04:40:58;99297.19;;;-2.14;71.74
14790;BME280;7486;51.010;10.366;2024-01-30T04:43:43;99328.78;;;-1.95;71.14
14790;BME280;7486;51.010;10.366;2024-01-30T04:46:29;99537.47;;;-0.76;71.65
14790;BME280;7486;51.010;10.366;2024-01-30T04:49:15;99527.38;;;-0.81;71.71
14790;BME280;7486;51.010;10.366;2024-01-30T04:52:01;99537.91;;;-0.82;71.94
14790;BME280;7486;51.010;10.366;2024-01-30T04:54:46;99417.97;;;-1.43;72.07
14790;BME280;7486;51.010;10.366;2024-01-30T04:57:32;99419.72;;;-1.43;72.50
14790;BME280;7486;51.010;10.366;2024-01-30T05:00:19;99390.72;;;-1.62;72.47
14790;BME280;7486;51.010;10.366;2024-01-30T05:03:05;99426.19;;;-1.49;72.03
14790;BME280;7486;51.010;10.366;2024-01-30T05:05:50;99538.81;;;-0.83;72.64
14790;BME280;7486;51.010;10.366;2024-01-30T05:08:36;99474.16;;;-1.27;72.26
14790;BME280;7486;51.010;10.366;2024-01-30T05:11:21;99454.13;;;-1.52;71.98
14790;BME280;7486;51.010;10.366;2024-01-30T05:14:07;99538.47;;;-0.92;72.07
14790;BME280;7486;51.010;10.366;2024-01-30T05:16:54;99357.13;;;-2.05;71.83
14790;BME280;7486;51.010;10.366;2024-01-30T05:19:43;99474.66;;;-1.35;72.13
14790;BME280;7486;51.010;10.366;2024-01-30T05:22:30;99448.69;;;-1.62;71.66
14790;BME280;7486;51.010;10.366;2024-01-30T05:25:17;99318.50;;;-2.36;71.78
14790;BME280;7486;51.010;10.366;2024-01-30T05:28:03;99477.75;;;-1.43;71.85
14790;BME280;7486;51.010;10.366;2024-01-30T05:30:49;99416.59;;;-1.87;72.28
14790;BME280;7486;51.010;10.366;2024-01-30T05:33:34;99537.63;;;-1.05;72.73
14790;BME280;7486;51.010;10.366;2024-01-30T05:36:22;99502.81;;;-1.29;72.69
14790;BME280;7486;51.010;10.366;2024-01-30T05:39:07;99517.59;;;-1.29;72.93
14790;BME280;7486;51.010;10.366;2024-01-30T05:41:53;99550.84;;;-1.08;73.21
14790;BME280;7486;51.010;10.366;2024-01-30T05:44:39;99507.69;;;-1.37;73.14
14790;BME280;7486;51.010;10.366;2024-01-30T05:47:26;99447.28;;;-1.80;72.37
14790;BME280;7486;51.010;10.366;2024-01-30T05:50:11;99547.38;;;-1.21;72.49
14790;BME280;7486;51.010;10.366;2024-01-30T05:52:57;99479.50;;;-1.70;72.89
14790;BME280;7486;51.010;10.366;2024-01-30T05:55:42;99439.44;;;-1.92;72.76
14790;BME280;7486;51.010;10.366;2024-01-30T05:58:29;99430.25;;;-1.98;73.68
14790;BME280;7486;51.010;10.366;2024-01-30T06:01:16;99550.69;;;-1.19;73.68
14790;BME280;7486;51.010;10.366;2024-01-30T06:04:02;99420.63;;;-1.96;74.18
14790;BME280;7486;51.010;10.366;2024-01-30T06:06:48;99487.91;;;-1.52;73.95
14790;BME280;7486;51.010;10.366;2024-01-30T06:09:34;99423.66;;;-1.89;74.31
14790;BME280;7486;51.010;10.366;2024-01-30T06:12:20;99477.03;;;-1.45;74.28
14790;BME280;7486;51.010;10.366;2024-01-30T06:15:05;99478.88;;;-1.47;74.42
14790;BME280;7486;51.010;10.366;2024-01-30T06:17:52;99418.06;;;-1.83;74.22
14790;BME280;7486;51.010;10.366;2024-01-30T06:20:38;99474.06;;;-1.53;74.58
14790;BME280;7486;51.010;10.366;2024-01-30T06:23:23;99399.63;;;-2.06;75.29
14790;BME280;7486;51.010;10.366;2024-01-30T06:26:10;99412.84;;;-1.96;75.68
14790;BME280;7486;51.010;10.366;2024-01-30T06:28:55;99507.09;;;-1.28;75.69
14790;BME280;7486;51.010;10.366;2024-01-30T06:31:42;99376.78;;;-2.01;75.50
14790;BME280;7486;51.010;10.366;2024-01-30T06:34:29;99405.03;;;-1.69;75.42
14790;BME280;7486;51.010;10.366;2024-01-30T06:37:15;99439.16;;;-1.49;74.65
14790;BME280;7486;51.010;10.366;2024-01-30T06:40:02;99382.56;;;-1.70;74.73
14790;BME280;7486;51.010;10.366;2024-01-30T06:42:48;99459.06;;;-1.22;74.96
14790;BME280;7486;51.010;10.366;2024-01-30T06:45:34;99415.84;;;-1.63;74.68
14790;BME280;7486;51.010;10.366;2024-01-30T06:48:20;99345.31;;;-2.50;77.11
14790;BME280;7486;51.010;10.366;2024-01-30T06:51:06;99503.88;;;-1.31;77.44
14790;BME280;7486;51.010;10.366;2024-01-30T06:53:52;99529.00;;;-1.45;78.20
14790;BME280;7486;51.010;10.366;2024-01-30T06:56:37;99517.97;;;-1.48;79.32
14790;BME280;7486;51.010;10.366;2024-01-30T06:59:22;99537.97;;;-1.23;78.93
14790;BME280;7486;51.010;10.366;2024-01-30T07:02:08;99540.78;;;-1.26;78.71
14790;BME280;7486;51.010;10.366;2024-01-30T07:04:54;99532.03;;;-0.99;78.27
14790;BME280;7486;51.010;10.366;2024-01-30T07:07:39;99532.84;;;-0.98;77.81
14790;BME280;7486;51.010;10.366;2024-01-30T07:10:24;99539.75;;;-0.72;76.91
14790;BME280;7486;51.010;10.366;2024-01-30T07:13:12;99495.09;;;-0.91;76.49
14790;BME280;7486;51.010;10.366;2024-01-30T07:15:58;99529.78;;;-0.65;76.57
14790;BME280;7486;51.010;10.366;2024-01-30T07:18:44;99516.25;;;-0.58;75.50
14790;BME280;7486;51.010;10.366;2024-01-30T07:21:30;99526.75;;;-0.47;75.14
14790;BME280;7486;51.010;10.366;2024-01-30T07:24:15;99535.63;;;-0.62;75.28
14790;BME280;7486;51.010;10.366;2024-01-30T07:27:00;99540.09;;;-0.64;75.34
14790;BME280;7486;51.010;10.366;2024-01-30T07:29:46;99530.09;;;-0.70;75.28
14790;BME280;7486;51.010;10.366;2024-01-30T07:32:31;99536.47;;;-0.49;75.69
14790;BME280;7486;51.010;10.366;2024-01-30T07:35:17;99540.19;;;-0.40;74.99
14790;BME280;7486;51.010;10.366;2024-01-30T07:38:03;99532.72;;;-0.32;74.77
14790;BME280;7486;51.010;10.366;2024-01-30T07:40:49;99537.28;;;-0.35;75.08
14790;BME280;7486;51.010;10.366;2024-01-30T07:43:35;99539.56;;;-0.18;74.94
14790;BME280;7486;51.010;10.366;2024-01-30T07:46:21;99505.00;;;-0.46;75.16
14790;BME280;7486;51.010;10.366;2024-01-30T07:49:07;99540.38;;;-0.30;74.64
14790;BME280;7486;51.010;10.366;2024-01-30T07:51:53;99536.56;;;-0.25;75.20
14790;BME280;7486;51.010;10.366;2024-01-30T07:54:38;99538.69;;;-0.06;74.57
14790;BME280;7486;51.010;10.366;2024-01-30T07:57:24;99527.41;;;-0.43;74.86
14790;BME280;7486;51.010;10.366;2024-01-30T08:00:10;99536.44;;;-0.74;77.77
14790;BME280;7486;51.010;10.366;2024-01-30T08:02:56;99544.16;;;-0.22;76.16
14790;BME280;7486;51.010;10.366;2024-01-30T08:05:42;99533.59;;;0.05;75.54
14790;BME280;7486;51.010;10.366;2024-01-30T08:08:27;99527.19;;;0.22;74.60
14790;BME280;7486;51.010;10.366;2024-01-30T08:11:13;99524.53;;;0.34;74.11
14790;BME280;7486;51.010;10.366;2024-01-30T08:13:58;99539.75;;;0.40;73.29
14790;BME280;7486;51.010;10.366;2024-01-30T08:16:44;99512.69;;;0.30;73.35
14790;BME280;7486;51.010;10.366;2024-01-30T08:19:29;99517.22;;;0.39;73.67
14790;BME280;7486;51.010;10.366;2024-01-30T08:22:15;99538.94;;;0.63;73.14
14790;BME280;7486;51.010;10.366;2024-01-30T08:25:00;99534.81;;;0.72;72.67
14790;BME280;7486;51.010;10.366;2024-01-30T08:27:46;99515.22;;;0.67;72.81
14790;BME280;7486;51.010;10.366;2024-01-30T08:30:31;99536.44;;;0.86;73.21
14790;BME280;7486;51.010;10.366;2024-01-30T08:33:16;99529.38;;;0.51;74.24
14790;BME280;7486;51.010;10.366;2024-01-30T08:36:02;99524.75;;;0.55;74.81
14790;BME280;7486;51.010;10.366;2024-01-30T08:38:48;99522.13;;;0.91;73.27
14790;BME280;7486;51.010;10.366;2024-01-30T08:41:33;99527.22;;;0.93;72.99
14790;BME280;7486;51.010;10.366;2024-01-30T08:44:19;99508.47;;;0.88;73.45
14790;BME280;7486;51.010;10.366;2024-01-30T08:47:04;99514.13;;;1.05;72.62
14790;BME280;7486;51.010;10.366;2024-01-30T08:49:50;99523.50;;;1.08;72.97
14790;BME280;7486;51.010;10.366;2024-01-30T08:52:35;99532.16;;;1.08;73.08
14790;BME280;7486;51.010;10.366;2024-01-30T08:55:21;99521.41;;;0.89;73.92
14790;BME280;7486;51.010;10.366;2024-01-30T08:58:06;99519.84;;;0.87;74.82
14790;BME280;7486;51.010;10.366;2024-01-30T09:00:51;99532.56;;;1.26;74.85
14790;BME280;7486;51.010;10.366;2024-01-30T09:03:37;99524.38;;;1.31;73.88
14790;BME280;7486;51.010;10.366;2024-01-30T09:06:22;99522.13;;;1.26;74.07
14790;BME280;7486;51.010;10.366;2024-01-30T09:09:08;99505.19;;;0.97;75.07
14790;BME280;7486;51.010;10.366;2024-01-30T09:11:54;99530.00;;;1.13;76.16
14790;BME280;7486;51.010;10.366;2024-01-30T09:14:40;99501.25;;;1.26;75.53
14790;BME280;7486;51.010;10.366;2024-01-30T09:17:25;99530.94;;;1.58;75.26
14790;BME280;7486;51.010;10.366;2024-01-30T09:20:11;99526.44;;;1.83;74.41
14790;BME280;7486;51.010;10.366;2024-01-30T09:22:57;99522.16;;;2.15;72.33
14790;BME280;7486;51.010;10.366;2024-01-30T09:25:43;99515.94;;;2.27;71.87
14790;BME280;7486;51.010;10.366;2024-01-30T09:28:28;99510.38;;;2.32;71.07
14790;BME280;7486;51.010;10.366;2024-01-30T09:31:14;99522.94;;;2.49;71.40
14790;BME280;7486;51.010;10.366;2024-01-30T09:33:59;99523.56;;;2.73;71.01
14790;BME280;7486;51.010;10.366;2024-01-30T09:36:45;99526.22;;;2.94;69.59
14790;BME280;7486;51.010;10.366;2024-01-30T09:39:31;99515.03;;;2.92;69.37
14790;BME280;7486;51.010;10.366;2024-01-30T09:42:34;99523.03;;;3.11;69.08
14790;BME280;7486;51.010;10.366;2024-01-30T09:45:24;99505.59;;;3.00;68.99
14790;BME280;7486;51.010;10.366;2024-01-30T09:48:10;99521.16;;;3.34;69.10
14790;BME280;7486;51.010;10.366;2024-01-30T09:50:57;99492.78;;;3.18;68.21
14790;BME280;7486;51.010;10.366;2024-01-30T09:53:43;99526.34;;;3.45;67.69
14790;BME280;7486;51.010;10.366;2024-01-30T09:56:28;99491.69;;;3.21;67.89
14790;BME280;7486;51.010;10.366;2024-01-30T09:59:15;99532.97;;;3.49;68.11
14790;BME280;7486;51.010;10.366;2024-01-30T10:02:00;99535.34;;;3.31;67.75
14790;BME280;7486;51.010;10.366;2024-01-30T10:04:50;99531.63;;;3.34;68.07
14790;BME280;7486;51.010;10.366;2024-01-30T10:07:36;99530.69;;;3.35;67.07
14790;BME280;7486;51.010;10.366;2024-01-30T10:10:22;99526.50;;;3.32;67.28
14790;BME280;7486;51.010;10.366;2024-01-30T10:13:08;99539.50;;;3.34;67.59
14790;BME280;7486;51.010;10.366;2024-01-30T10:15:54;99549.34;;;3.41;67.34
14790;BME280;7486;51.010;10.366;2024-01-30T10:18:41;99537.72;;;3.23;67.25
14790;BME280;7486;51.010;10.366;2024-01-30T10:21:32;99556.09;;;3.44;67.10
14790;BME280;7486;51.010;10.366;2024-01-30T10:24:17;99549.19;;;3.63;66.37
14790;BME280;7486;51.010;10.366;2024-01-30T10:27:05;99556.59;;;3.58;66.63
14790;BME280;7486;51.010;10.366;2024-01-30T10:29:50;99552.25;;;3.69;66.70
14790;BME280;7486;51.010;10.366;2024-01-30T10:32:35;99542.63;;;3.48;66.59
14790;BME280;7486;51.010;10.366;2024-01-30T10:35:21;99561.00;;;3.79;65.99
14790;BME280;7486;51.010;10.366;2024-01-30T10:38:07;99556.94;;;3.44;67.07
14790;BME280;7486;51.010;10.366;2024-01-30T10:41:05;99562.28;;;3.63;67.37
14790;BME280;7486;51.010;10.366;2024-01-30T10:44:04;99550.56;;;3.88;66.10
14790;BME280;7486;51.010;10.366;2024-01-30T10:46:58;99529.34;;;4.01;65.15
14790;BME280;7486;51.010;10.366;2024-01-30T10:49:46;99549.81;;;4.07;64.53
14790;BME280;7486;51.010;10.366;2024-01-30T10:52:32;99550.94;;;4.14;64.81
14790;BME280;7486;51.010;10.366;2024-01-30T10:55:18;99549.19;;;4.24;64.70
14790;BME280;7486;51.010;10.366;2024-01-30T10:58:04;99547.16;;;4.37;64.05
14790;BME280;7486;51.010;10.366;2024-01-30T11:00:50;99539.97;;;4.39;64.56
14790;BME280;7486;51.010;10.366;2024-01-30T11:03:36;99537.13;;;4.71;63.35
14790;BME280;7486;51.010;10.366;2024-01-30T11:06:23;99517.63;;;4.54;63.05
14790;BME280;7486;51.010;10.366;2024-01-30T11:09:11;99528.25;;;4.53;62.42
14790;BME280;7486;51.010;10.366;2024-01-30T11:11:58;99513.63;;;4.50;63.38
14790;BME280;7486;51.010;10.366;2024-01-30T11:14:44;99516.25;;;4.60;62.28
14790;BME280;7486;51.010;10.366;2024-01-30T11:18:05;99520.81;;;4.67;62.49
14790;BME280;7486;51.010;10.366;2024-01-30T11:20:51;99505.59;;;4.42;63.32
14790;BME280;7486;51.010;10.366;2024-01-30T11:23:38;99518.69;;;4.42;63.86
14790;BME280;7486;51.010;10.366;2024-01-30T11:26:28;99515.41;;;4.59;63.60
14790;BME280;7486;51.010;10.366;2024-01-30T11:29:14;99514.19;;;4.54;63.03
14790;BME280;7486;51.010;10.366;2024-01-30T11:31:59;99510.44;;;4.66;63.14
14790;BME280;7486;51.010;10.366;2024-01-30T11:34:44;99510.03;;;4.80;61.86
14790;BME280;7486;51.010;10.366;2024-01-30T11:37:30;99494.84;;;4.84;61.99
14790;BME280;7486;51.010;10.366;2024-01-30T11:40:16;99485.44;;;4.91;61.48
14790;BME280;7486;51.010;10.366;2024-01-30T11:43:03;99473.72;;;4.76;61.82
14790;BME280;7486;51.010;10.366;2024-01-30T11:45:50;99473.44;;;4.79;61.74
14790;BME280;7486;51.010;10.366;2024-01-30T11:48:36;99475.66;;;4.54;63.47
14790;BME280;7486;51.010;10.366;2024-01-30T11:51:21;99450.66;;;4.50;62.83
14790;BME280;7486;51.010;10.366;2024-01-30T11:54:07;99442.22;;;4.56;63.44
14790;BME280;7486;51.010;10.366;2024-01-30T11:56:53;99459.06;;;4.92;62.67
14790;BME280;7486;51.010;10.366;2024-01-30T11:59:38;99446.34;;;5.16;61.68
14790;BME280;7486;51.010;10.366;2024-01-30T12:02:24;99422.03;;;4.95;62.36
14790;BME280;7486;51.010;10.366;2024-01-30T12:05:10;99450.19;;;5.12;62.12
14790;BME280;7486;51.010;10.366;2024-01-30T12:07:55;99449.34;;;5.12;62.73
14790;BME280;7486;51.010;10.366;2024-01-30T12:10:41;99453.53;;;5.14;62.50
14790;BME280;7486;51.010;10.366;2024-01-30T12:13:27;99445.50;;;5.26;62.54
14790;BME280;7486;51.010;10.366;2024-01-30T12:16:18;99408.31;;;5.21;61.42
14790;BME280;7486;51.010;10.366;2024-01-30T12:19:04;99444.38;;;5.28;62.78
14790;BME280;7486;51.010;10.366;2024-01-30T12:21:57;99457.75;;;5.44;62.38
14790;BME280;7486;51.010;10.366;2024-01-30T12:24:42;99450.91;;;5.61;61.32
14790;BME280;7486;51.010;10.366;2024-01-30T12:27:28;99441.28;;;5.42;61.58
14790;BME280;7486;51.010;10.366;2024-01-30T12:30:14;99441.00;;;5.45;61.91
14790;BME280;7486;51.010;10.366;2024-01-30T12:33:00;99436.31;;;5.39;62.65
14790;BME280;7486;51.010;10.366;2024-01-30T12:35:46;99432.22;;;5.64;61.06
14790;BME280;7486;51.010;10.366;2024-01-30T12:38:46;99441.19;;;5.71;61.33
14790;BME280;7486;51.010;10.366;2024-01-30T12:41:32;99437.84;;;5.79;60.60
14790;BME280;7486;51.010;10.366;2024-01-30T12:44:18;99445.44;;;5.72;61.03
14790;BME280;7486;51.010;10.366;2024-01-30T12:47:03;99435.03;;;5.80;61.24
14790;BME280;7486;51.010;10.366;2024-01-30T12:49:49;99437.13;;;6.04;60.45
14790;BME280;7486;51.010;10.366;2024-01-30T12:52:35;99444.00;;;6.14;60.47
14790;BME280;7486;51.010;10.366;2024-01-30T12:55:21;99433.78;;;6.11;60.31
14790;BME280;7486;51.010;10.366;2024-01-30T12:58:07;99428.63;;;5.92;60.38
14790;BME280;7486;51.010;10.366;2024-01-30T13:00:53;99415.03;;;5.97;61.03
14790;BME280;7486;51.010;10.366;2024-01-30T13:03:39;99447.56;;;6.23;60.88
14790;BME280;7486;51.010;10.366;2024-01-30T13:06:25;99443.41;;;6.20;60.85
14790;BME280;7486;51.010;10.366;2024-01-30T13:09:10;99442.97;;;6.25;60.68
14790;BME280;7486;51.010;10.366;2024-01-30T13:11:56;99443.31;;;6.30;60.90
14790;BME280;7486;51.010;10.366;2024-01-30T13:14:48;99439.53;;;5.97;61.69
14790;BME280;7486;51.010;10.366;2024-01-30T13:17:36;99450.56;;;5.74;63.32
14790;BME280;7486;51.010;10.366;2024-01-30T13:20:30;99447.78;;;5.85;63.11
14790;BME280;7486;51.010;10.366;2024-01-30T13:23:23;99443.38;;;5.76;63.57
14790;BME280;7486;51.010;10.366;2024-01-30T13:26:10;99448.34;;;6.06;62.33
14790;BME280;7486;51.010;10.366;2024-01-30T13:28:55;99459.53;;;6.08;62.65
14790;BME280;7486;51.010;10.366;2024-01-30T13:31:44;99460.66;;;6.05;62.80
14790;BME280;7486;51.010;10.366;2024-01-30T13:34:32;99446.50;;;6.16;62.51
14790;BME280;7486;51.010;10.366;2024-01-30T13:37:18;99446.50;;;6.16;62.72
14790;BME280;7486;51.010;10.366;2024-01-30T13:40:07;99451.75;;;6.16;62.82
14790;BME280;7486;51.010;10.366;2024-01-30T13:42:59;99441.91;;;6.36;62.30
14790;BME280;7486;51.010;10.366;2024-01-30T13:45:46;99445.16;;;6.47;61.83
14790;BME280;7486;51.010;10.366;2024-01-30T13:48:38;99441.25;;;6.51;60.62
14790;BME280;7486;51.010;10.366;2024-01-30T13:51:23;99441.94;;;6.53;60.89
14790;BME280;7486;51.010;10.366;2024-01-30T13:54:14;99440.41;;;6.68;60.38
14790;BME280;7486;51.010;10.366;2024-01-30T13:57:01;99449.75;;;6.45;61.12
14790;BME280;7486;51.010;10.366;2024-01-30T14:00:12;99427.84;;;6.27;62.02
14790;BME280;7486;51.010;10.366;2024-01-30T14:03:02;99423.84;;;6.05;62.35
14790;BME280;7486;51.010;10.366;2024-01-30T14:05:47;99440.19;;;6.27;62.48
14790;BME280;7486;51.010;10.366;2024-01-30T14:08:33;99445.59;;;6.25;62.49
14790;BME280;7486;51.010;10.366;2024-01-30T14:11:18;99433.19;;;6.35;61.89
14790;BME280;7486;51.010;10.366;2024-01-30T14:14:04;99432.75;;;6.22;62.18
14790;BME280;7486;51.010;10.366;2024-01-30T14:16:49;99436.72;;;6.26;62.00
14790;BME280;7486;51.010;10.366;2024-01-30T14:19:35;99433.56;;;6.23;61.76
14790;BME280;7486;51.010;10.366;2024-01-30T14:22:21;99438.31;;;6.37;61.55
14790;BME280;7486;51.010;10.366;2024-01-30T14:25:07;99426.88;;;6.46;61.80
14790;BME280;7486;51.010;10.366;2024-01-30T14:27:53;99443.84;;;6.34;62.12
14790;BME280;7486;51.010;10.366;2024-01-30T14:30:38;99438.38;;;6.27;62.07
14790;BME280;7486;51.010;10.366;2024-01-30T14:33:24;99437.09;;;6.31;61.82
14790;BME280;7486;51.010;10.366;2024-01-30T14:36:09;99441.28;;;6.24;62.23
14790;BME280;7486;51.010;10.366;2024-01-30T14:38:55;99441.22;;;6.34;62.00
14790;BME280;7486;51.010;10.366;2024-01-30T14:41:40;99439.56;;;6.15;62.80
14790;BME280;7486;51.010;10.366;2024-01-30T14:44:26;99435.81;;;6.17;62.84
14790;BME280;7486;51.010;10.366;2024-01-30T14:47:12;99429.56;;;6.18;63.08
14790;BME280;7486;51.010;10.366;2024-01-30T14:49:57;99427.47;;;6.22;63.08